Time;durP1;ratioP1;P1;durP2;ratioP2;P2;SDS_P1;SDS_P2;PMS_P1;PMS_P2;Temp;Humidity;BMP_temperature;BMP_pressure;BME280_temperature;BME280_humidity;BME280_pressure;Samples;Min_cycle;Max_cycle;Signal;HPM_P1;HPM_P2
2022/07/15 00:01:51;;;;;;;3.63;2.10;;;17.30;99.90;;;;;;5032642;28;20192;-80
2022/07/15 00:04:18;;;;;;;8.43;3.37;;;17.30;99.90;;;;;;5035197;28;20172;-82
2022/07/15 00:06:44;;;;;;;8.83;3.10;;;17.20;99.90;;;;;;5035376;28;20165;-80
2022/07/15 00:09:10;;;;;;;5.97;3.23;;;17.30;99.90;;;;;;5035140;28;20173;-77
2022/07/15 00:11:36;;;;;;;4.10;2.93;;;17.20;99.90;;;;;;5035258;28;20181;-72
2022/07/15 00:14:02;;;;;;;9.97;2.57;;;17.00;99.90;;;;;;5035370;28;20268;-78
2022/07/15 00:16:27;;;;;;;2.80;2.23;;;16.80;99.90;;;;;;5035139;28;20259;-80
2022/07/15 00:18:53;;;;;;;5.40;3.37;;;16.70;99.90;;;;;;5035158;28;20231;-80
2022/07/15 00:21:19;;;;;;;18.77;5.57;;;16.50;99.90;;;;;;5025244;28;20189;-76
2022/07/15 00:23:45;;;;;;;6.87;3.87;;;15.90;99.90;;;;;;5024461;28;20181;-79
2022/07/15 00:26:10;;;;;;;12.97;3.33;;;-32.40;99.90;;;;;;5024211;28;20176;-81
2022/07/15 00:28:36;;;;;;;5.80;2.67;;;-36.00;99.90;;;;;;5035214;28;20184;-76
2022/07/15 00:31:02;;;;;;;6.20;3.30;;;-38.40;99.90;;;;;;5035160;28;20176;-80
2022/07/15 00:33:27;;;;;;;8.20;3.50;;;-35.30;99.90;;;;;;5024126;28;20198;-78
2022/07/15 00:35:53;;;;;;;4.87;2.77;;;-40.00;99.90;;;;;;5032341;28;20471;-77
2022/07/15 00:38:19;;;;;;;6.10;2.70;;;-31.40;99.90;;;;;;5033601;28;20188;-77
2022/07/15 00:40:47;;;;;;;5.97;3.17;;;-38.90;99.90;;;;;;5024420;28;20280;-77
2022/07/15 00:43:15;;;;;;;7.17;2.77;;;-36.20;99.90;;;;;;5026086;28;20569;-77
2022/07/15 00:45:42;;;;;;;6.17;2.60;;;-40.00;99.90;;;;;;5025074;28;20193;-79
2022/07/15 00:48:08;;;;;;;4.77;2.90;;;-40.00;99.90;;;;;;5034168;28;20471;-79
2022/07/15 00:50:34;;;;;;;5.30;2.20;;;-40.00;99.90;;;;;;5036844;28;20172;-77
2022/07/15 00:53:05;;;;;;;6.70;3.70;;;-37.40;99.90;;;;;;5038629;28;20260;-69
2022/07/15 00:55:36;;;;;;;4.80;2.20;;;-35.40;99.90;;;;;;5027573;28;20482;-68
2022/07/15 00:58:04;;;;;;;5.60;2.93;;;-40.00;99.90;;;;;;5038772;28;20255;-69
2022/07/15 01:00:31;;;;;;;6.17;3.03;;;-40.00;99.90;;;;;;5038442;28;20292;-70
2022/07/15 01:02:59;;;;;;;7.37;2.87;;;-33.80;99.90;;;;;;5038580;28;20642;-65
2022/07/15 01:05:26;;;;;;;5.17;3.17;;;-29.70;99.90;;;;;;5038149;28;20711;-68
2022/07/15 01:07:52;;;;;;;7.47;2.83;;;-26.10;99.90;;;;;;5038354;28;20520;-69
2022/07/15 01:10:21;;;;;;;6.37;2.93;;;-35.70;99.90;;;;;;5038177;28;20168;-70
2022/07/15 01:12:49;;;;;;;5.67;3.57;;;-26.90;99.90;;;;;;5038492;28;20173;-71
2022/07/15 01:15:15;;;;;;;4.13;3.00;;;-32.90;99.90;;;;;;5038236;28;20169;-68
2022/07/15 01:17:43;;;;;;;10.90;3.60;;;-23.30;99.90;;;;;;5038361;28;20173;-71
2022/07/15 01:20:10;;;;;;;4.87;2.87;;;-27.30;99.90;;;;;;5037639;28;20177;-69
2022/07/15 01:22:36;;;;;;;7.93;2.97;;;-28.10;99.90;;;;;;5038097;28;20223;-67
2022/07/15 01:25:02;;;;;;;6.93;3.47;;;-26.90;99.90;;;;;;5038139;28;20577;-65
2022/07/15 01:27:28;;;;;;;16.63;3.93;;;-31.40;99.90;;;;;;5038029;28;20191;-76
2022/07/15 01:29:53;;;;;;;7.23;2.83;;;-32.10;99.90;;;;;;5038083;28;20172;-68
2022/07/15 01:32:19;;;;;;;11.87;2.83;;;-33.70;99.90;;;;;;5037900;28;20535;-78
2022/07/15 01:34:48;;;;;;;6.73;2.57;;;-30.10;99.90;;;;;;5037677;28;20618;-78
2022/07/15 01:37:15;;;;;;;4.10;3.40;;;-32.20;99.90;;;;;;5037953;28;20569;-70
2022/07/15 01:39:41;;;;;;;5.83;3.07;;;-30.50;99.90;;;;;;5037683;28;20216;-73
2022/07/15 01:42:07;;;;;;;5.60;2.70;;;-28.50;99.90;;;;;;5037702;28;20651;-74
2022/07/15 01:44:33;;;;;;;7.77;3.00;;;-23.20;99.90;;;;;;5037737;28;20181;-73
2022/07/15 01:46:59;;;;;;;8.20;3.47;;;-27.30;99.90;;;;;;5037482;28;20497;-75
2022/07/15 01:49:25;;;;;;;4.03;2.67;;;-22.60;99.90;;;;;;5027673;28;20315;-79
2022/07/15 01:51:55;;;;;;;7.30;4.37;;;-24.40;99.90;;;;;;5028486;28;20170;-73
2022/07/15 01:54:22;;;;;;;5.93;4.00;;;-21.50;99.90;;;;;;5035115;28;20173;-69
2022/07/15 01:56:52;;;;;;;4.37;2.87;;;-21.40;99.90;;;;;;5037395;28;20258;-76
2022/07/15 01:59:18;;;;;;;9.63;4.10;;;-19.30;99.90;;;;;;5026540;28;20175;-77
2022/07/15 02:01:44;;;;;;;6.43;4.13;;;-22.80;99.90;;;;;;5036353;28;20196;-80
2022/07/15 02:04:12;;;;;;;5.00;2.90;;;-27.50;99.90;;;;;;5035935;28;20623;-72
2022/07/15 02:06:39;;;;;;;9.23;4.07;;;-26.00;99.90;;;;;;5037319;28;20177;-76
2022/07/15 02:09:05;;;;;;;7.23;3.67;;;-30.80;99.90;;;;;;5037441;28;20511;-71
2022/07/15 02:11:32;;;;;;;5.80;3.13;;;-21.40;99.90;;;;;;5037147;28;20181;-75
2022/07/15 02:13:59;;;;;;;9.63;4.50;;;-24.30;99.90;;;;;;5026307;28;20197;-76
2022/07/15 02:16:29;;;;;;;4.87;3.10;;;-31.70;99.90;;;;;;5036890;28;20168;-71
2022/07/15 02:18:55;;;;;;;8.47;3.50;;;-30.50;99.90;;;;;;5036932;28;20181;-74
2022/07/15 02:21:21;;;;;;;4.50;4.07;;;-30.90;99.90;;;;;;5037048;28;20471;-73
2022/07/15 02:23:47;;;;;;;4.60;4.27;;;-39.60;99.90;;;;;;5037146;28;20184;-71
2022/07/15 02:26:13;;;;;;;7.63;4.40;;;-29.20;99.90;;;;;;5037049;28;20165;-69
2022/07/15 02:28:39;;;;;;;7.13;3.30;;;-29.10;99.90;;;;;;5036786;28;20238;-67
2022/07/15 02:31:05;;;;;;;8.17;3.50;;;-30.50;99.90;;;;;;5036894;28;20173;-69
2022/07/15 02:33:31;;;;;;;6.33;3.53;;;-29.40;99.90;;;;;;5036489;28;20196;-77
2022/07/15 02:35:57;;;;;;;7.20;4.57;;;-31.30;99.90;;;;;;5035869;28;20526;-70
2022/07/15 02:38:23;;;;;;;6.00;3.60;;;-26.50;99.90;;;;;;5027438;28;20267;-72
2022/07/15 02:40:49;;;;;;;6.67;3.00;;;-25.00;99.90;;;;;;5026603;28;20201;-74
2022/07/15 02:43:15;;;;;;;5.83;3.80;;;-26.70;99.90;;;;;;5026034;28;20169;-72
2022/07/15 02:45:41;;;;;;;11.63;3.83;;;-24.60;99.90;;;;;;5027593;28;20207;-73
2022/07/15 02:48:08;;;;;;;15.60;3.13;;;-26.00;99.90;;;;;;5026020;28;20256;-73
2022/07/15 02:50:34;;;;;;;8.90;2.93;;;-23.60;99.90;;;;;;5035478;28;20303;-72
2022/07/15 02:53:02;;;;;;;7.97;3.50;;;-30.90;99.90;;;;;;5036371;28;20176;-70
2022/07/15 02:55:28;;;;;;;7.47;3.80;;;-37.20;99.90;;;;;;5036417;28;20180;-76
2022/07/15 02:57:54;;;;;;;5.93;4.00;;;-40.00;99.90;;;;;;5036198;28;20668;-77
2022/07/15 03:00:20;;;;;;;4.70;2.60;;;-32.10;99.90;;;;;;5036194;28;20208;-77
2022/07/15 03:02:47;;;;;;;6.47;3.43;;;-28.20;99.90;;;;;;5035914;28;20576;-76
2022/07/15 03:05:14;;;;;;;7.43;3.40;;;-31.20;99.90;;;;;;5036376;28;20164;-74
2022/07/15 03:07:40;;;;;;;10.47;4.07;;;-30.00;99.90;;;;;;5034715;28;20168;-75
2022/07/15 03:10:07;;;;;;;3.67;3.33;;;-37.30;99.90;;;;;;5035811;28;20265;-79
2022/07/15 03:12:33;;;;;;;6.83;3.60;;;-40.00;99.90;;;;;;5036046;28;20165;-76
2022/07/15 03:14:59;;;;;;;5.27;3.40;;;-38.50;99.90;;;;;;5036202;28;20509;-73
2022/07/15 03:17:25;;;;;;;11.43;4.30;;;-38.10;99.90;;;;;;5033210;28;20223;-70
2022/07/15 03:19:51;;;;;;;5.07;3.03;;;-28.10;99.90;;;;;;5035853;28;20177;-71
2022/07/15 03:22:17;;;;;;;5.77;3.53;;;-34.10;99.90;;;;;;5035952;28;20196;-77
2022/07/15 03:24:42;;;;;;;5.63;3.23;;;-28.30;99.90;;;;;;5035782;28;20168;-70
2022/07/15 03:27:09;;;;;;;5.03;3.90;;;-25.90;99.90;;;;;;5035844;28;20180;-72
2022/07/15 03:29:35;;;;;;;7.07;3.93;;;-27.90;99.90;;;;;;5025357;28;20247;-74
2022/07/15 03:32:02;;;;;;;5.00;2.93;;;-23.70;99.90;;;;;;5026687;28;20452;-73
2022/07/15 03:34:27;;;;;;;5.90;3.70;;;-27.00;99.90;;;;;;5025012;28;20181;-79
2022/07/15 03:36:54;;;;;;;8.33;3.97;;;-32.10;99.90;;;;;;5035778;28;20187;-68
2022/07/15 03:39:21;;;;;;;6.13;4.00;;;-23.00;99.90;;;;;;5034271;28;20280;-72
2022/07/15 03:41:47;;;;;;;8.67;3.03;;;-22.40;99.90;;;;;;5035437;28;20207;-78
2022/07/15 03:44:14;;;;;;;7.23;3.23;;;-25.30;99.90;;;;;;5025511;28;20192;-75
2022/07/15 03:46:40;;;;;;;4.57;3.30;;;-25.60;99.90;;;;;;5026270;28;20204;-72
2022/07/15 03:49:06;;;;;;;6.47;4.20;;;-25.90;99.90;;;;;;5024533;28;20181;-73
2022/07/15 03:51:32;;;;;;;4.40;2.93;;;-25.70;99.90;;;;;;5035279;28;20188;-76
2022/07/15 03:53:59;;;;;;;4.77;3.67;;;-30.20;99.90;;;;;;5035492;28;20173;-67
2022/07/15 03:56:26;;;;;;;8.07;3.10;;;-26.30;99.90;;;;;;5024455;28;20216;-70
2022/07/15 03:58:52;;;;;;;4.83;3.83;;;-27.20;99.90;;;;;;5025945;28;20589;-78
2022/07/15 04:01:20;;;;;;;5.17;3.80;;;-31.40;99.90;;;;;;5025730;28;20236;-76
2022/07/15 04:03:48;;;;;;;8.57;3.40;;;-30.50;99.90;;;;;;5023087;28;20208;-69
2022/07/15 04:06:14;;;;;;;8.53;4.10;;;-23.10;99.90;;;;;;5025838;28;20181;-75
2022/07/15 04:08:41;;;;;;;4.07;3.50;;;-25.30;99.90;;;;;;5026075;28;20181;-74
2022/07/15 04:11:06;;;;;;;4.73;3.83;;;-27.60;99.90;;;;;;5024519;28;20223;-79
2022/07/15 04:13:32;;;;;;;4.27;3.27;;;-27.90;99.90;;;;;;5025784;28;20226;-80
2022/07/15 04:15:58;;;;;;;8.20;3.87;;;-35.90;99.90;;;;;;5025450;28;20620;-80
2022/07/15 04:18:24;;;;;;;5.73;3.83;;;-36.80;99.90;;;;;;5035282;28;20490;-72
2022/07/15 04:20:49;;;;;;;5.23;3.30;;;-32.20;99.90;;;;;;5026043;28;20307;-76
2022/07/15 04:23:15;;;;;;;5.23;2.77;;;-32.90;99.90;;;;;;5025461;28;20177;-71
2022/07/15 04:25:42;;;;;;;4.00;2.67;;;-30.00;99.90;;;;;;5037766;28;20172;-71
2022/07/15 04:28:08;;;;;;;7.33;3.60;;;-32.10;99.90;;;;;;5039275;28;20196;-75
2022/07/15 04:30:33;;;;;;;5.83;4.20;;;-32.60;99.90;;;;;;5038944;28;20580;-77
2022/07/15 04:32:59;;;;;;;5.93;3.33;;;-32.90;99.90;;;;;;5039329;28;20184;-71
2022/07/15 04:35:25;;;;;;;6.23;3.13;;;-26.70;99.90;;;;;;5038979;28;20183;-77
2022/07/15 04:37:51;;;;;;;11.53;2.83;;;-33.30;99.90;;;;;;5038903;28;20184;-73
2022/07/15 04:40:17;;;;;;;5.07;3.50;;;-33.10;99.90;;;;;;5028861;28;20207;-70
2022/07/15 04:42:43;;;;;;;7.00;4.53;;;-31.40;99.90;;;;;;5029687;28;20178;-74
2022/07/15 04:45:09;;;;;;;6.60;3.23;;;-34.40;99.90;;;;;;5038837;28;20173;-67
2022/07/15 04:47:35;;;;;;;9.33;4.87;;;-29.70;99.90;;;;;;5029387;28;20622;-76
2022/07/15 04:52:47;;;;;;;8.53;3.63;;;-29.50;99.90;;;;;;5037948;28;20502;-71
2022/07/15 04:55:13;;;;;;;3.43;3.17;;;-31.40;99.90;;;;;;5038603;28;20180;-74
2022/07/15 04:57:38;;;;;;;5.10;3.60;;;-30.30;99.90;;;;;;5038474;28;20647;-76
2022/07/15 05:00:05;;;;;;;3.90;3.10;;;-30.00;99.90;;;;;;5038540;28;20251;-69
2022/07/15 05:02:31;;;;;;;5.47;3.30;;;-29.70;99.90;;;;;;5035894;28;20209;-68
2022/07/15 05:04:57;;;;;;;4.67;3.30;;;-30.00;99.90;;;;;;5038233;28;20188;-66
2022/07/15 05:07:23;;;;;;;4.70;3.20;;;-33.40;99.90;;;;;;5038454;28;20207;-67
2022/07/15 05:09:49;;;;;;;3.60;3.23;;;-33.30;99.90;;;;;;5038167;28;20584;-72
2022/07/15 05:12:15;;;;;;;5.87;3.57;;;-36.20;99.90;;;;;;5031754;28;20184;-69
2022/07/15 05:14:41;;;;;;;4.70;3.13;;;-34.90;99.90;;;;;;5035950;28;20215;-71
2022/07/15 05:17:08;;;;;;;3.20;2.90;;;-29.50;99.90;;;;;;5038274;28;20184;-74
2022/07/15 05:19:34;;;;;;;3.00;2.80;;;-35.30;99.90;;;;;;5035791;28;20250;-67
2022/07/15 05:22:00;;;;;;;6.27;3.47;;;-27.90;99.90;;;;;;5037073;28;20541;-80
2022/07/15 05:24:26;;;;;;;4.63;3.37;;;-28.90;99.90;;;;;;5027702;28;20172;-80
2022/07/15 05:26:52;;;;;;;3.63;3.03;;;-33.60;99.90;;;;;;5028901;28;20484;-73
2022/07/15 05:29:21;;;;;;;6.70;3.20;;;-30.90;99.90;;;;;;5027525;28;20483;-67
2022/07/15 05:31:50;;;;;;;3.83;3.47;;;-30.30;99.90;;;;;;5027171;28;20176;-74
2022/07/15 05:34:16;;;;;;;5.93;3.20;;;-29.50;99.90;;;;;;5036197;28;20176;-75
2022/07/15 05:36:42;;;;;;;3.83;3.50;;;-33.70;99.90;;;;;;5036747;28;20177;-72
2022/07/15 05:39:08;;;;;;;9.63;3.83;;;-24.10;99.90;;;;;;5037756;28;20189;-74
2022/07/15 05:41:35;;;;;;;7.43;3.63;;;-23.30;99.90;;;;;;5034807;28;20200;-73
2022/07/15 05:44:01;;;;;;;7.60;3.67;;;-32.40;99.90;;;;;;5038049;28;20214;-71
2022/07/15 05:46:27;;;;;;;6.23;3.03;;;-34.30;99.90;;;;;;5036338;28;20548;-67
2022/07/15 05:48:53;;;;;;;5.23;3.07;;;-38.10;99.90;;;;;;5034653;28;20524;-69
2022/07/15 05:51:19;;;;;;;6.77;3.37;;;-36.60;99.90;;;;;;5032127;28;20184;-68
2022/07/15 05:53:45;;;;;;;8.87;3.80;;;-39.40;99.90;;;;;;5027474;28;20223;-69
2022/07/15 05:56:11;;;;;;;8.60;2.87;;;-38.10;99.90;;;;;;5032693;28;20511;-66
2022/07/15 05:58:37;;;;;;;8.13;2.57;;;-40.00;99.90;;;;;;5037689;28;20259;-68
2022/07/15 06:01:04;;;;;;;4.90;2.50;;;-40.00;99.90;;;;;;5034214;28;20228;-67
2022/07/15 06:03:30;;;;;;;5.27;2.67;;;-39.90;99.90;;;;;;5021953;28;20169;-74
2022/07/15 06:05:56;;;;;;;9.07;3.10;;;-40.00;99.90;;;;;;5026875;28;20623;-70
2022/07/15 06:08:22;;;;;;;5.40;2.30;;;-40.00;99.90;;;;;;5028289;28;20252;-68
2022/07/15 06:10:48;;;;;;;7.70;2.33;;;-40.00;99.90;;;;;;5026788;28;20186;-68
2022/07/15 06:13:14;;;;;;;7.47;2.07;;;-40.00;99.90;;;;;;5037323;28;20183;-71
2022/07/15 06:15:40;;;;;;;5.83;1.87;;;-40.00;99.90;;;;;;5027701;28;20169;-69
2022/07/15 06:18:07;;;;;;;3.90;2.00;;;-40.00;99.90;;;;;;5026520;28;20541;-70
2022/07/15 06:20:33;;;;;;;3.77;1.60;;;-40.00;99.90;;;;;;5026215;28;20180;-78
2022/07/15 06:22:59;;;;;;;3.70;2.33;;;-34.40;99.90;;;;;;5027918;28;20180;-66
2022/07/15 06:25:25;;;;;;;5.97;1.70;;;-36.80;99.90;;;;;;5027114;28;20173;-75
2022/07/15 06:27:51;;;;;;;9.00;2.67;;;-40.00;99.90;;;;;;5035733;28;20173;-77
2022/07/15 06:30:17;;;;;;;8.73;1.93;;;-40.00;99.90;;;;;;5034250;28;20467;-75
2022/07/15 06:32:43;;;;;;;2.80;1.03;;;-40.00;99.90;;;;;;5036820;28;20643;-80
2022/07/15 06:35:09;;;;;;;9.20;2.30;;;-40.00;99.90;;;;;;5026554;28;20646;-81
2022/07/15 06:37:34;;;;;;;2.17;1.60;;;-40.00;99.90;;;;;;5033533;28;20482;-80
2022/07/15 06:40:01;;;;;;;8.43;2.73;;;-40.00;99.90;;;;;;5034575;28;20211;-78
2022/07/15 06:42:28;;;;;;;3.50;1.43;;;-40.00;99.90;;;;;;5030289;28;20209;-68
2022/07/15 06:44:55;;;;;;;2.93;1.80;;;-40.00;99.90;;;;;;5035752;28;20207;-69
2022/07/15 06:47:21;;;;;;;5.33;1.50;;;-39.50;99.90;;;;;;5034695;28;20193;-69
2022/07/15 06:49:48;;;;;;;5.23;2.53;;;-33.40;99.90;;;;;;5035715;28;20219;-68
2022/07/15 06:52:14;;;;;;;5.40;1.60;;;-28.00;99.90;;;;;;5035042;28;20180;-66
2022/07/15 06:54:40;;;;;;;6.67;2.27;;;-31.20;99.90;;;;;;5026978;28;20184;-69
2022/07/15 06:57:06;;;;;;;4.63;1.73;;;-35.00;99.90;;;;;;5026242;28;20604;-69
2022/07/15 06:59:33;;;;;;;6.13;1.60;;;-40.00;99.90;;;;;;5025637;28;20208;-67
2022/07/15 07:01:58;;;;;;;5.63;1.57;;;-31.80;99.90;;;;;;5026231;28;20200;-69
2022/07/15 07:04:25;;;;;;;6.23;2.37;;;-40.00;99.20;;;;;;5027240;28;20176;-76
2022/07/15 07:06:54;;;;;;;14.03;3.10;;;-40.00;98.90;;;;;;5025646;28;20172;-81
2022/07/15 07:09:20;;;;;;;4.27;2.50;;;-40.00;98.20;;;;;;5035481;28;20192;-74
2022/07/15 07:11:46;;;;;;;3.00;1.83;;;-40.00;98.00;;;;;;5034543;28;20227;-80
2022/07/15 07:14:12;;;;;;;7.07;2.80;;;-40.00;97.60;;;;;;5025208;28;20568;-77
2022/07/15 07:16:37;;;;;;;47.97;4.30;;;-40.00;97.70;;;;;;5026910;28;20172;-75
2022/07/15 07:19:03;;;;;;;4.80;2.67;;;-40.00;96.90;;;;;;5025009;28;20520;-75
2022/07/15 07:21:29;;;;;;;8.63;3.00;;;-40.00;96.70;;;;;;5035336;28;20200;-73
2022/07/15 07:23:55;;;;;;;9.43;4.27;;;-40.00;97.50;;;;;;5034141;28;20172;-73
2022/07/15 07:26:20;;;;;;;4.97;3.00;;;-40.00;97.10;;;;;;5035525;28;20173;-73
2022/07/15 07:28:48;;;;;;;8.73;3.20;;;-40.00;98.50;;;;;;5025878;28;20169;-83
2022/07/15 07:31:14;;;;;;;2.93;2.00;;;-40.00;97.80;;;;;;5025571;28;20585;-73
2022/07/15 07:33:41;;;;;;;2.90;2.47;;;-40.00;97.50;;;;;;5034673;28;20546;-72
2022/07/15 07:36:08;;;;;;;3.53;2.03;;;-40.00;95.90;;;;;;5022685;28;20173;-73
2022/07/15 07:38:35;;;;;;;5.27;1.63;;;-40.00;95.40;;;;;;5021738;28;20192;-72
2022/07/15 07:41:01;;;;;;;2.27;2.00;;;-40.00;95.10;;;;;;5023913;28;20207;-71
2022/07/15 07:43:28;;;;;;;3.90;2.03;;;-40.00;93.60;;;;;;5032994;28;20168;-72
2022/07/15 07:45:54;;;;;;;2.67;1.87;;;-40.00;92.70;;;;;;5031059;28;20277;-72
2022/07/15 07:48:19;;;;;;;4.47;1.83;;;-40.00;93.10;;;;;;5034047;28;20569;-69
2022/07/15 07:50:46;;;;;;;11.00;3.30;;;-40.00;93.40;;;;;;5034128;28;20187;-74
2022/07/15 07:53:12;;;;;;;4.10;2.23;;;-40.00;94.10;;;;;;5033072;28;20639;-69
2022/07/15 07:55:39;;;;;;;12.13;2.30;;;-40.00;93.20;;;;;;5032908;28;20281;-69
2022/07/15 07:58:05;;;;;;;10.13;2.40;;;-40.00;93.00;;;;;;5034042;28;20186;-70
2022/07/15 08:00:32;;;;;;;6.13;2.97;;;-40.00;92.60;;;;;;5031474;28;20172;-72
2022/07/15 08:02:59;;;;;;;23.40;3.90;;;-40.00;93.20;;;;;;5034023;28;20256;-73
2022/07/15 08:05:26;;;;;;;22.53;6.17;;;-40.00;91.60;;;;;;5032206;28;20490;-69
2022/07/15 08:08:09;;;;;;;7.37;2.57;;;-40.00;91.00;;;;;;5033718;28;20254;-69
2022/07/15 08:10:35;;;;;;;31.87;5.33;;;-40.00;88.10;;;;;;5031804;28;20175;-72
2022/07/15 08:13:01;;;;;;;12.60;2.77;;;-40.00;90.00;;;;;;5032827;28;20255;-68
2022/07/15 08:15:28;;;;;;;261.40;29.77;;;-40.00;90.50;;;;;;5034404;28;20180;-69
2022/07/15 08:17:54;;;;;;;20.63;2.57;;;-40.00;90.20;;;;;;5033613;28;20172;-75
2022/07/15 08:20:19;;;;;;;14.10;3.47;;;-40.00;87.60;;;;;;5033619;28;20176;-71
2022/07/15 08:22:45;;;;;;;54.10;7.70;;;-40.00;89.20;;;;;;5030841;28;20246;-70
2022/07/15 08:25:11;;;;;;;6.60;2.30;;;-40.00;89.00;;;;;;5033726;28;20622;-69
2022/07/15 08:27:37;;;;;;;27.77;4.40;;;-40.00;88.60;;;;;;5034079;28;20165;-69
2022/07/15 08:30:04;;;;;;;21.03;3.83;;;-40.00;87.00;;;;;;5033888;28;20169;-72
2022/07/15 08:32:29;;;;;;;6.10;2.80;;;-40.00;88.50;;;;;;5033541;28;20173;-70
2022/07/15 08:34:55;;;;;;;8.40;3.30;;;-40.00;88.30;;;;;;5031180;28;20185;-72
2022/07/15 08:37:21;;;;;;;15.47;2.70;;;-40.00;87.10;;;;;;5032795;28;20307;-74
2022/07/15 08:39:47;;;;;;;19.60;3.67;;;-40.00;86.70;;;;;;5032924;28;20216;-75
2022/07/15 08:42:16;;;;;;;13.30;3.50;;;-40.00;86.80;;;;;;5023212;28;20200;-74
2022/07/15 08:44:45;;;;;;;30.13;5.03;;;-40.00;87.20;;;;;;5024387;28;20169;-71
2022/07/15 08:47:11;;;;;;;6.23;3.33;;;-40.00;86.00;;;;;;5021816;28;20339;-70
2022/07/15 08:49:39;;;;;;;8.20;2.67;;;-40.00;84.10;;;;;;5026468;28;20304;-74
2022/07/15 08:52:05;;;;;;;65.87;9.93;;;-40.00;82.40;;;;;;5033771;28;20196;-74
2022/07/15 08:54:32;;;;;;;5.17;2.63;;;-40.00;82.90;;;;;;5030850;28;20176;-69
2022/07/15 08:56:58;;;;;;;23.33;4.07;;;-40.00;83.60;;;;;;5032961;28;20227;-72
2022/07/15 08:59:24;;;;;;;9.40;2.40;;;-40.00;78.90;;;;;;5034169;28;20176;-75
2022/07/15 09:01:53;;;;;;;7.17;2.43;;;-40.00;78.60;;;;;;5024762;28;20204;-75
2022/07/15 09:04:19;;;;;;;17.07;4.77;;;-40.00;77.30;;;;;;5024149;28;20600;-70
2022/07/15 09:06:49;;;;;;;3.63;2.13;;;-40.00;81.40;;;;;;5029604;28;20177;-72
2022/07/15 09:09:30;;;;;;;8.03;1.87;;;-40.00;80.90;;;;;;5034426;28;20180;-69
2022/07/15 09:12:04;;;;;;;2.90;1.40;;;-40.00;76.80;;;;;;5033610;28;20238;-68
2022/07/15 09:14:32;;;;;;;13.77;2.97;;;-40.00;70.40;;;;;;5035185;28;20182;-77
2022/07/15 09:17:22;;;;;;;4.80;1.67;;;-40.00;71.20;;;;;;5037672;28;20168;-75
2022/07/15 09:20:03;;;;;;;3.60;1.60;;;-40.00;73.20;;;;;;5033944;28;20177;-70
2022/07/15 09:22:32;;;;;;;6.30;1.97;;;-40.00;71.10;;;;;;5034809;28;20212;-73
2022/07/15 09:25:10;;;;;;;1.70;1.37;;;-40.00;71.60;;;;;;5037436;28;20173;-68
2022/07/15 09:27:39;;;;;;;5.73;1.93;;;-40.00;71.10;;;;;;5035180;28;20203;-70
2022/07/15 09:36:03;;;;;;;5.97;2.57;;;-40.00;72.80;;;;;;5036323;28;20238;-70
2022/07/15 09:38:46;;;;;;;3.70;1.70;;;-40.00;73.00;;;;;;5027136;28;20541;-68
2022/07/15 09:41:27;;;;;;;3.37;2.67;;;-40.00;70.60;;;;;;5034356;28;20296;-68
2022/07/15 09:44:01;;;;;;;3.80;2.07;;;-40.00;69.30;;;;;;5033656;28;20164;-70
2022/07/15 09:46:50;;;;;;;4.20;2.13;;;-40.00;70.00;;;;;;5036387;28;20189;-69
2022/07/15 09:49:25;;;;;;;4.47;2.30;;;-40.00;69.90;;;;;;5033419;28;20247;-70
2022/07/15 09:51:55;;;;;;;3.57;2.00;;;-40.00;66.70;;;;;;5036069;28;20180;-69
2022/07/15 09:54:32;;;;;;;4.03;2.10;;;-40.00;66.70;;;;;;5036314;28;20619;-70
2022/07/15 09:56:59;;;;;;;8.33;1.83;;;-40.00;65.80;;;;;;5035359;28;20165;-68
2022/07/15 09:59:26;;;;;;;4.30;1.87;;;-19.90;76.90;;;;;;5037637;28;20223;-69
2022/07/15 10:01:52;;;;;;;2.57;1.67;;;22.20;97.50;;;;;;5035361;28;20207;-68
2022/07/15 10:04:23;;;;;;;3.93;1.63;;;22.40;97.60;;;;;;5036978;28;20195;-69
2022/07/15 10:06:51;;;;;;;6.57;1.90;;;22.40;97.00;;;;;;5026236;28;20223;-69
2022/07/15 10:09:23;;;;;;;4.10;1.87;;;22.20;95.60;;;;;;5036369;28;20177;-69
2022/07/15 10:11:52;;;;;;;2.70;2.50;;;22.00;95.90;;;;;;5037281;28;20499;-71
2022/07/15 10:14:36;;;;;;;3.83;2.30;;;21.80;96.40;;;;;;5037225;28;20173;-68
2022/07/15 10:17:28;;;;;;;4.20;1.87;;;21.70;96.40;;;;;;5035431;28;20219;-69
2022/07/15 10:20:32;;;;;;;2.93;1.63;;;21.60;95.70;;;;;;5021274;28;20639;-69
2022/07/15 10:23:32;;;;;;;5.47;1.87;;;21.60;96.00;;;;;;5034352;28;20184;-70
2022/07/15 10:26:16;;;;;;;3.17;1.40;;;21.80;96.90;;;;;;5035304;28;20173;-76
2022/07/15 10:28:48;;;;;;;3.53;1.87;;;21.80;96.50;;;;;;5035265;28;20557;-74
2022/07/15 10:31:22;;;;;;;3.10;1.83;;;21.70;95.80;;;;;;5033770;28;20251;-73
2022/07/15 10:34:04;;;;;;;2.40;1.90;;;21.90;95.40;;;;;;5034224;28;20168;-75
2022/07/15 10:36:49;;;;;;;2.40;1.70;;;21.90;96.10;;;;;;5035109;28;20254;-75
2022/07/15 10:39:24;;;;;;;3.20;1.40;;;21.90;96.20;;;;;;5031884;28;20210;-72
2022/07/15 10:41:57;;;;;;;3.10;1.40;;;21.80;94.70;;;;;;5033681;28;20235;-75
2022/07/15 10:44:29;;;;;;;4.00;1.77;;;21.70;95.00;;;;;;5030323;28;20184;-70
2022/07/15 10:47:13;;;;;;;4.53;1.47;;;21.60;95.10;;;;;;5033431;28;20200;-75
2022/07/15 10:49:44;;;;;;;10.03;2.00;;;22.00;94.50;;;;;;5034515;28;20173;-79
2022/07/15 10:52:42;;;;;;;2.77;1.53;;;22.10;96.70;;;;;;5036110;28;20178;-76
2022/07/15 10:55:08;;;;;;;2.20;1.40;;;22.40;95.50;;;;;;5025264;28;20464;-74
2022/07/15 10:57:42;;;;;;;3.60;1.70;;;22.00;94.30;;;;;;5036248;28;20235;-71
2022/07/15 11:00:28;;;;;;;3.63;1.47;;;21.40;94.60;;;;;;5025430;28;20179;-72
2022/07/15 11:03:05;;;;;;;2.17;2.00;;;-40.00;56.20;;;;;;5035951;28;20173;-76
2022/07/15 11:05:32;;;;;;;5.00;1.60;;;-40.00;56.30;;;;;;5025227;28;20178;-76
2022/07/15 11:07:58;;;;;;;1.30;1.20;;;-40.00;55.10;;;;;;5035756;28;20176;-73
2022/07/15 11:10:24;;;;;;;1.80;1.30;;;-40.00;56.70;;;;;;5034992;28;20206;-77
2022/07/15 11:12:50;;;;;;;5.47;1.67;;;-40.00;58.80;;;;;;5024284;28;20181;-72
2022/07/15 11:15:17;;;;;;;2.77;1.60;;;22.50;91.20;;;;;;5026898;28;20187;-69
2022/07/15 11:17:46;;;;;;;3.80;1.67;;;23.20;93.40;;;;;;5024992;28;20246;-74
2022/07/15 11:20:17;;;;;;;1.57;1.20;;;23.10;92.30;;;;;;5026855;28;20169;-71
2022/07/15 11:22:45;;;;;;;7.03;1.53;;;23.10;93.40;;;;;;5034117;28;20545;-70
2022/07/15 11:25:27;;;;;;;3.40;1.73;;;23.20;93.70;;;;;;5034657;28;20175;-74
2022/07/15 11:28:02;;;;;;;3.73;1.60;;;23.70;93.40;;;;;;5034215;28;20180;-71
2022/07/15 11:30:34;;;;;;;5.73;1.77;;;-40.00;56.70;;;;;;5025130;28;20192;-69
2022/07/15 11:33:02;;;;;;;2.53;1.70;;;-40.00;56.20;;;;;;5033168;28;20172;-70
2022/07/15 11:35:28;;;;;;;2.73;1.50;;;-40.00;55.30;;;;;;5033618;28;20168;-70
2022/07/15 11:38:03;;;;;;;3.50;1.77;;;-40.00;53.30;;;;;;5035527;28;20234;-73
2022/07/15 11:46:05;;;;;;;1.67;1.20;;;24.20;90.00;;;;;;5033647;28;20195;-71
2022/07/15 11:48:36;;;;;;;3.00;1.47;;;24.00;92.30;;;;;;5035242;28;20569;-67
2022/07/15 11:51:02;;;;;;;1.40;1.30;;;23.90;90.50;;;;;;5031611;28;20172;-71
2022/07/15 11:53:36;;;;;;;2.07;1.20;;;23.50;90.70;;;;;;5032179;28;20176;-73
2022/07/15 11:56:02;;;;;;;0.87;0.70;;;22.90;89.00;;;;;;5035903;28;20192;-74
2022/07/15 11:58:33;;;;;;;5.20;1.70;;;22.80;86.90;;;;;;5032749;28;20180;-74
2022/07/15 12:01:10;;;;;;;4.53;1.03;;;23.30;89.10;;;;;;5034525;28;20189;-71
2022/07/15 12:03:42;;;;;;;1.53;1.43;;;24.50;88.00;;;;;;5034174;28;20176;-72
2022/07/15 12:06:19;;;;;;;1.60;1.10;;;25.40;83.10;;;;;;5033800;28;20314;-69
2022/07/15 12:08:50;;;;;;;2.23;1.30;;;24.60;82.40;;;;;;5032342;28;20180;-71
2022/07/15 12:11:20;;;;;;;2.73;0.87;;;27.30;83.00;;;;;;5033823;28;20929;-71
2022/07/15 12:13:49;;;;;;;2.37;1.00;;;27.10;80.90;;;;;;5034240;28;20180;-70
2022/07/15 12:16:21;;;;;;;0.93;0.90;;;26.40;82.70;;;;;;5028197;28;20196;-71
2022/07/15 12:18:48;;;;;;;3.43;1.63;;;26.00;85.40;;;;;;5032735;28;20624;-79
2022/07/15 12:21:14;;;;;;;3.30;1.10;;;24.80;82.20;;;;;;5033907;28;20247;-69
2022/07/15 12:23:40;;;;;;;1.00;0.90;;;25.30;82.90;;;;;;5034723;28;20180;-69
2022/07/15 12:26:08;;;;;;;2.20;1.27;;;24.90;82.90;;;;;;5029202;28;20234;-72
2022/07/15 12:28:35;;;;;;;1.73;1.30;;;25.00;82.80;;;;;;5027687;28;20176;-70
2022/07/15 12:31:02;;;;;;;2.50;1.10;;;24.90;85.20;;;;;;5024209;28;20176;-70
2022/07/15 12:33:32;;;;;;;1.63;1.07;;;24.80;86.70;;;;;;5023374;28;20280;-70
2022/07/15 12:36:16;;;;;;;1.90;1.37;;;24.50;87.10;;;;;;5005319;28;20174;-69
2022/07/15 12:38:44;;;;;;;1.80;1.07;;;24.20;86.80;;;;;;5021971;28;20487;-73
2022/07/15 12:41:23;;;;;;;1.40;0.90;;;24.00;84.50;;;;;;5028149;28;20556;-70
2022/07/15 12:44:01;;;;;;;3.30;0.90;;;23.40;84.80;;;;;;5031813;28;20173;-69
2022/07/15 12:46:57;;;;;;;2.13;1.57;;;23.90;86.50;;;;;;5034328;28;20618;-70
2022/07/15 12:49:44;;;;;;;3.20;1.10;;;23.70;86.20;;;;;;5038510;28;20531;-70
2022/07/15 12:52:38;;;;;;;4.33;2.00;;;23.70;89.10;;;;;;5035671;28;20184;-70
2022/07/15 12:55:26;;;;;;;2.50;0.97;;;23.80;90.10;;;;;;5038708;28;20266;-69
2022/07/15 12:58:01;;;;;;;1.70;0.90;;;23.80;83.90;;;;;;5038442;28;20164;-71
2022/07/15 13:00:29;;;;;;;2.37;0.83;;;23.60;84.80;;;;;;5037256;28;20164;-69